createdAt,value
2022-11-15T00:02:39.959Z,11.20
2022-11-15T00:05:28.087Z,11.40
2022-11-15T00:08:15.439Z,11.50
2022-11-15T00:11:03.574Z,11.50
2022-11-15T00:13:52.055Z,11.50
2022-11-15T00:16:39.202Z,11.40
2022-11-15T00:19:26.044Z,11.40
2022-11-15T00:22:12.808Z,11.40
2022-11-15T00:24:59.634Z,11.40
2022-11-15T00:27:46.403Z,11.40
2022-11-15T00:30:35.774Z,11.30
2022-11-15T00:33:23.102Z,11.30
2022-11-15T00:36:11.851Z,11.20
2022-11-15T00:38:58.469Z,11.30
2022-11-15T00:41:45.200Z,11.20
2022-11-15T00:44:32.231Z,11.30
2022-11-15T00:47:20.488Z,11.30
2022-11-15T00:50:09.821Z,11.30
2022-11-15T00:52:59.725Z,11.20
2022-11-15T00:55:46.853Z,11.30
2022-11-15T00:58:34.063Z,11.30
2022-11-15T01:01:21.081Z,11.30
2022-11-15T01:04:09.207Z,11.30
2022-11-15T01:06:56.268Z,11.30
2022-11-15T01:09:43.197Z,11.30
2022-11-15T01:12:32.938Z,11.30
2022-11-15T01:15:19.762Z,11.20
2022-11-15T01:18:06.689Z,11.20
2022-11-15T01:20:54.909Z,11.20
2022-11-15T01:23:42.425Z,11.20
2022-11-15T01:26:29.273Z,11.20
2022-11-15T01:29:16.781Z,11.10
2022-11-15T01:32:03.418Z,11.10
2022-11-15T01:34:50.408Z,11.10
2022-11-15T01:37:38.680Z,11.10
2022-11-15T01:40:25.725Z,11.10
2022-11-15T01:43:23.419Z,11.10
2022-11-15T01:46:24.564Z,11.10
2022-11-15T01:49:16.624Z,11.10
2022-11-15T01:52:04.515Z,11.00
2022-11-15T01:54:58.655Z,11.00
2022-11-15T01:57:48.521Z,11.00
2022-11-15T02:00:35.549Z,11.00
2022-11-15T02:03:25.093Z,11.00
2022-11-15T02:06:12.210Z,11.00
2022-11-15T02:08:59.659Z,11.00
2022-11-15T02:11:49.729Z,11.00
2022-11-15T02:14:37.948Z,10.90
2022-11-15T02:17:45.765Z,10.90
2022-11-15T02:21:08.604Z,10.90
2022-11-15T02:24:25.897Z,10.90
2022-11-15T02:27:55.989Z,10.90
2022-11-15T02:30:48.626Z,10.90
2022-11-15T02:33:44.201Z,10.80
2022-11-15T02:36:41.599Z,10.80
2022-11-15T02:39:34.629Z,10.80
2022-11-15T02:42:44.513Z,10.80
2022-11-15T02:45:35.422Z,10.80
2022-11-15T02:48:24.579Z,10.70
2022-11-15T02:51:12.115Z,10.70
2022-11-15T02:53:59.069Z,10.70
2022-11-15T02:56:48.477Z,10.80
2022-11-15T03:00:05.507Z,10.80
2022-11-15T03:03:18.402Z,10.70
2022-11-15T03:06:17.133Z,10.70
2022-11-15T03:09:08.948Z,10.70
2022-11-15T03:12:08.521Z,10.70
2022-11-15T03:15:00.088Z,10.70
2022-11-15T03:17:53.249Z,10.70
2022-11-15T03:20:41.160Z,10.50
2022-11-15T03:23:32.581Z,10.50
2022-11-15T03:26:23.605Z,10.60
2022-11-15T03:29:16.017Z,10.50
2022-11-15T03:32:07.691Z,10.50
2022-11-15T03:34:58.944Z,10.50
2022-11-15T03:37:52.328Z,10.50
2022-11-15T03:40:42.488Z,10.40
2022-11-15T03:43:38.415Z,10.20
2022-11-15T03:46:29.997Z,10.40
2022-11-15T03:49:22.015Z,10.50
2022-11-15T03:52:08.799Z,10.50
2022-11-15T03:54:57.377Z,10.40
2022-11-15T03:57:46.210Z,10.30
2022-11-15T04:00:33.461Z,10.30
2022-11-15T04:03:20.419Z,10.20
2022-11-15T04:06:07.780Z,10.20
2022-11-15T04:08:54.604Z,10.20
2022-11-15T04:11:41.608Z,10.10
2022-11-15T04:14:29.789Z,10.20
2022-11-15T04:17:16.537Z,10.20
2022-11-15T04:20:20.888Z,10.20
2022-11-15T04:23:26.759Z,10.10
2022-11-15T04:26:16.671Z,10.10
2022-11-15T04:29:21.249Z,10.00
2022-11-15T04:32:09.638Z,10.10
2022-11-15T04:34:56.759Z,10.00
2022-11-15T04:37:48.936Z,10.00
2022-11-15T04:40:36.195Z,10.10
2022-11-15T04:43:22.875Z,10.10
2022-11-15T04:46:09.969Z,10.00
2022-11-15T04:48:59.279Z,10.00
2022-11-15T04:51:46.695Z,10.00
2022-11-15T04:54:33.856Z,10.00
2022-11-15T04:57:20.929Z,10.00
2022-11-15T05:00:10.323Z,10.10
2022-11-15T05:03:23.143Z,10.10
2022-11-15T05:06:11.527Z,10.10
2022-11-15T05:08:58.428Z,10.20
2022-11-15T05:11:45.486Z,10.30
2022-11-15T05:14:32.215Z,10.30
2022-11-15T05:17:18.829Z,10.30
2022-11-15T05:20:06.508Z,10.30
2022-11-15T05:22:55.296Z,10.30
2022-11-15T05:25:42.242Z,10.30
2022-11-15T05:28:29.549Z,10.30
2022-11-15T05:31:18.022Z,10.30
2022-11-15T05:34:07.635Z,10.40
2022-11-15T05:36:54.595Z,10.50
2022-11-15T05:39:42.809Z,10.50
2022-11-15T05:42:31.596Z,10.40
2022-11-15T05:45:23.903Z,10.50
2022-11-15T05:48:14.509Z,10.40
2022-11-15T05:51:02.070Z,10.50
2022-11-15T05:53:49.435Z,10.40
2022-11-15T05:56:37.651Z,10.40
2022-11-15T05:59:24.775Z,10.30
2022-11-15T06:02:11.935Z,10.30
2022-11-15T06:04:58.573Z,10.30
2022-11-15T06:07:45.861Z,10.30
2022-11-15T06:10:32.562Z,10.20
2022-11-15T06:13:20.950Z,10.30
2022-11-15T06:16:08.291Z,10.20
2022-11-15T06:18:55.508Z,10.30
2022-11-15T06:21:42.357Z,10.30
2022-11-15T06:24:29.045Z,10.30
2022-11-15T06:27:15.730Z,10.30
2022-11-15T06:30:04.546Z,10.30
2022-11-15T06:32:51.507Z,10.30
2022-11-15T06:35:38.857Z,10.30
2022-11-15T06:38:25.782Z,10.40
2022-11-15T06:41:14.803Z,10.50
2022-11-15T06:44:01.835Z,10.60
2022-11-15T06:46:50.255Z,10.60
2022-11-15T06:49:37.497Z,10.60
2022-11-15T06:52:24.526Z,10.70
2022-11-15T06:55:11.600Z,10.80
2022-11-15T06:57:58.380Z,10.80
2022-11-15T07:00:46.030Z,10.80
2022-11-15T07:03:36.303Z,10.90
2022-11-15T07:06:22.907Z,11.00
2022-11-15T07:09:09.847Z,11.00
2022-11-15T07:11:56.600Z,11.00
2022-11-15T07:14:43.292Z,11.10
2022-11-15T07:17:30.039Z,11.10
2022-11-15T07:20:18.444Z,11.10
2022-11-15T07:23:06.831Z,11.10
2022-11-15T07:25:53.594Z,11.20
2022-11-15T07:28:41.029Z,11.20
2022-11-15T07:31:27.765Z,11.30
2022-11-15T07:34:14.594Z,11.30
2022-11-15T07:37:03.170Z,11.30
2022-11-15T07:39:50.256Z,11.30
2022-11-15T07:42:55.334Z,11.40
2022-11-15T07:45:47.207Z,11.40
2022-11-15T07:48:43.991Z,11.40
2022-11-15T07:51:31.844Z,11.50
2022-11-15T07:54:19.902Z,11.60
2022-11-15T07:57:07.905Z,11.60
2022-11-15T07:59:54.970Z,11.60
2022-11-15T08:02:42.237Z,11.60
2022-11-15T08:05:28.957Z,11.70
2022-11-15T08:08:16.058Z,11.70
2022-11-15T08:11:04.833Z,11.80
2022-11-15T08:13:52.595Z,11.70
2022-11-15T08:16:39.499Z,11.80
2022-11-15T08:19:26.486Z,11.80
2022-11-15T08:22:13.437Z,11.90
2022-11-15T08:25:00.236Z,12.00
2022-11-15T08:27:48.614Z,12.10
2022-11-15T08:30:39.158Z,12.10
2022-11-15T08:33:26.432Z,12.10
2022-11-15T08:36:16.171Z,12.20
2022-11-15T08:39:03.106Z,12.20
2022-11-15T08:41:50.256Z,12.20
2022-11-15T08:44:38.509Z,12.20
2022-11-15T08:47:25.558Z,12.30
2022-11-15T08:50:12.520Z,12.30
2022-11-15T08:52:59.733Z,12.30
2022-11-15T08:55:46.475Z,12.30
2022-11-15T08:58:34.128Z,12.30
2022-11-15T09:01:23.681Z,12.50
2022-11-15T09:04:10.596Z,12.50
2022-11-15T09:06:57.853Z,12.50
2022-11-15T09:09:45.037Z,12.60
2022-11-15T09:12:32.023Z,12.60
2022-11-15T09:15:20.026Z,12.70
2022-11-15T09:18:08.669Z,12.80
2022-11-15T09:20:58.899Z,12.80
2022-11-15T09:23:46.039Z,12.90
2022-11-15T09:26:33.081Z,12.90
2022-11-15T09:29:20.239Z,12.90
2022-11-15T09:32:08.335Z,13.00
2022-11-15T09:34:56.633Z,13.00
2022-11-15T09:37:43.262Z,13.10
2022-11-15T09:40:32.107Z,13.20
2022-11-15T09:43:41.567Z,13.30
2022-11-15T09:46:38.639Z,13.40
2022-11-15T09:49:25.690Z,13.40
2022-11-15T09:52:13.270Z,13.40
2022-11-15T09:54:57.933Z,13.50
2022-11-15T09:57:40.951Z,13.60
2022-11-15T10:03:14.600Z,13.70
2022-11-15T10:05:44.788Z,13.80
2022-11-15T10:08:26.787Z,13.90
2022-11-15T10:11:22.688Z,14.00
2022-11-15T10:13:49.191Z,14.10
2022-11-15T10:16:27.335Z,14.10
2022-11-15T10:19:03.343Z,14.20
2022-11-15T10:21:43.100Z,14.20
2022-11-15T10:24:20.791Z,14.20
2022-11-15T10:26:49.681Z,14.30
2022-11-15T10:29:26.265Z,14.40
2022-11-15T10:31:55.406Z,14.40
2022-11-15T10:34:24.499Z,14.50
2022-11-15T10:36:57.161Z,14.50
2022-11-15T10:39:28.352Z,14.60
2022-11-15T10:41:56.717Z,14.70
2022-11-15T10:44:28.581Z,14.80
2022-11-15T10:47:07.633Z,14.80
2022-11-15T10:49:36.353Z,14.90
2022-11-15T10:52:14.548Z,14.90
2022-11-15T10:54:45.381Z,15.00
2022-11-15T10:57:15.946Z,15.00
2022-11-15T10:59:46.138Z,15.00
2022-11-15T11:02:29.377Z,15.00
2022-11-15T11:04:57.858Z,15.10
2022-11-15T11:07:28.580Z,15.10
2022-11-15T11:10:13.332Z,15.20
2022-11-15T11:12:51.331Z,15.20
2022-11-15T11:15:20.560Z,15.30
2022-11-15T11:17:59.808Z,15.20
2022-11-15T11:20:35.043Z,15.30
2022-11-15T11:23:16.462Z,15.30
2022-11-15T11:25:54.215Z,15.20
2022-11-15T11:28:32.799Z,15.30
2022-11-15T11:31:06.885Z,15.40
2022-11-15T11:33:35.938Z,15.50
2022-11-15T11:36:10.401Z,15.60
2022-11-15T11:38:46.067Z,15.70
2022-11-15T11:41:22.553Z,15.80
2022-11-15T11:43:55.295Z,15.90
2022-11-15T11:46:36.976Z,15.90
2022-11-15T11:49:11.213Z,15.90
2022-11-15T11:51:41.892Z,16.00
2022-11-15T11:54:14.910Z,16.10
2022-11-15T11:56:47.415Z,16.10
2022-11-15T11:59:20.829Z,16.20
2022-11-15T12:01:49.024Z,16.20
2022-11-15T12:04:20.456Z,16.20
2022-11-15T12:06:51.095Z,16.30
2022-11-15T12:09:24.139Z,16.30
2022-11-15T12:11:58.274Z,16.30
2022-11-15T12:14:35.206Z,16.30
2022-11-15T12:17:03.364Z,16.30
2022-11-15T12:19:31.952Z,16.40
2022-11-15T12:22:04.417Z,16.50
2022-11-15T12:24:36.960Z,16.50
2022-11-15T12:27:08.862Z,16.60
2022-11-15T12:29:40.706Z,16.70
2022-11-15T12:32:19.342Z,16.70
2022-11-15T12:34:48.503Z,16.60
2022-11-15T12:37:35.172Z,16.60
2022-11-15T12:40:19.298Z,16.50
2022-11-15T12:43:05.243Z,16.50
2022-11-15T12:45:34.363Z,16.60
2022-11-15T12:48:21.240Z,16.70
2022-11-15T12:50:56.239Z,16.70
2022-11-15T12:53:31.257Z,16.80
2022-11-15T12:56:26.176Z,16.70
2022-11-15T12:58:59.093Z,16.60
2022-11-15T13:01:45.945Z,16.70
2022-11-15T13:04:16.130Z,16.70
2022-11-15T13:06:46.616Z,16.80
2022-11-15T13:09:56.467Z,16.80
2022-11-15T13:12:52.850Z,16.90
2022-11-15T13:15:57.402Z,16.90
2022-11-15T13:18:31.128Z,17.10
2022-11-15T13:21:02.737Z,17.20
2022-11-15T13:23:30.367Z,17.10
2022-11-15T13:26:12.156Z,17.10
2022-11-15T13:28:45.432Z,17.10
2022-11-15T13:31:22.099Z,17.20
2022-11-15T13:33:52.980Z,17.10
2022-11-15T13:36:23.001Z,17.10
2022-11-15T13:38:58.197Z,17.00
2022-11-15T13:41:29.306Z,17.00
2022-11-15T13:43:59.968Z,17.00
2022-11-15T13:46:30.185Z,17.00
2022-11-15T13:48:59.427Z,17.10
2022-11-15T13:51:33.295Z,17.10
2022-11-15T13:54:03.557Z,17.10
2022-11-15T13:56:35.055Z,17.00
2022-11-15T13:59:03.382Z,17.00
2022-11-15T14:01:34.061Z,16.90
2022-11-15T14:04:02.987Z,16.80
2022-11-15T14:06:31.801Z,16.80
2022-11-15T14:09:01.702Z,16.80
2022-11-15T14:11:30.203Z,16.80
2022-11-15T14:14:04.492Z,16.80
2022-11-15T14:16:37.085Z,16.90
2022-11-15T14:19:06.018Z,16.90
2022-11-15T14:21:34.613Z,16.80
2022-11-15T14:24:18.547Z,16.80
2022-11-15T14:26:46.973Z,16.70
2022-11-15T14:29:24.777Z,16.60
2022-11-15T14:31:54.318Z,16.60
2022-11-15T14:34:23.602Z,16.50
2022-11-15T14:36:51.946Z,16.40
2022-11-15T14:39:20.262Z,16.10
2022-11-15T14:41:50.481Z,16.10
2022-11-15T14:44:21.006Z,16.20
2022-11-15T14:46:49.608Z,16.20
2022-11-15T14:49:19.295Z,16.10
2022-11-15T14:51:47.414Z,16.10
2022-11-15T14:54:15.719Z,16.10
2022-11-15T14:56:44.073Z,16.10
2022-11-15T14:59:14.688Z,16.10
2022-11-15T15:01:45.456Z,16.10
2022-11-15T15:04:13.731Z,16.10
2022-11-15T18:21:07.425Z,13.40
2022-11-15T18:23:36.275Z,13.50
2022-11-15T18:26:06.067Z,13.50
2022-11-15T18:28:35.517Z,13.60
2022-11-15T18:31:14.048Z,13.40
2022-11-15T18:33:43.029Z,13.40
2022-11-15T18:36:13.651Z,13.40
2022-11-15T18:38:41.982Z,13.40
2022-11-15T18:41:11.171Z,13.30
2022-11-15T18:43:39.794Z,13.30
2022-11-15T18:46:09.271Z,13.30
2022-11-15T18:48:39.752Z,13.20
2022-11-15T18:51:08.823Z,13.10
2022-11-15T18:53:38.866Z,13.00
2022-11-15T18:56:07.949Z,13.10
2022-11-15T18:58:39.141Z,13.00
2022-11-15T19:01:08.160Z,13.00
2022-11-15T19:03:37.460Z,12.80
2022-11-15T19:06:06.110Z,12.90
2022-11-15T19:08:35.606Z,12.90
2022-11-15T19:11:06.037Z,13.00
2022-11-15T19:13:34.420Z,12.90
2022-11-15T19:16:03.501Z,12.80
2022-11-15T19:18:32.143Z,12.80
2022-11-15T19:21:04.093Z,12.60
2022-11-15T19:23:35.069Z,12.50
2022-11-15T19:26:11.405Z,12.60
2022-11-15T19:28:40.321Z,12.70
2022-11-15T19:31:12.039Z,12.90
2022-11-15T19:33:40.640Z,12.90
2022-11-15T19:36:12.074Z,12.90
2022-11-15T19:38:40.983Z,12.90
2022-11-15T19:41:13.317Z,12.70
2022-11-15T19:43:41.968Z,12.80
2022-11-15T19:46:13.336Z,12.50
2022-11-15T19:48:41.768Z,12.30
2022-11-15T19:51:13.423Z,12.20
2022-11-15T19:53:42.514Z,12.50
2022-11-15T19:56:15.962Z,12.10
2022-11-15T19:58:47.433Z,12.40
2022-11-15T20:01:19.133Z,12.40
2022-11-15T20:03:48.028Z,12.40
2022-11-15T20:06:18.238Z,12.40
2022-11-15T20:08:47.944Z,12.40
2022-11-15T20:11:18.509Z,12.50
2022-11-15T20:13:47.282Z,12.40
2022-11-15T20:16:18.342Z,12.50
2022-11-15T20:18:47.285Z,12.30
2022-11-15T20:21:16.209Z,12.30
2022-11-15T20:23:44.564Z,12.10
2022-11-15T20:26:15.940Z,12.10
2022-11-15T20:28:45.814Z,12.30
2022-11-15T20:31:14.214Z,12.30
2022-11-15T20:33:45.796Z,12.30
2022-11-15T20:36:15.985Z,12.40
2022-11-15T20:38:44.993Z,12.50
2022-11-15T20:41:13.730Z,12.50
2022-11-15T20:43:43.548Z,12.60
2022-11-15T20:46:15.850Z,12.50
2022-11-15T20:48:44.190Z,12.30
2022-11-15T20:51:14.384Z,12.10
2022-11-15T20:53:43.559Z,12.20
2022-11-15T20:56:13.772Z,12.10
2022-11-15T20:58:45.839Z,12.30
2022-11-15T21:01:17.924Z,12.40
2022-11-15T21:03:46.336Z,12.40
2022-11-15T21:06:14.666Z,11.90
2022-11-15T21:09:00.053Z,12.00
2022-11-15T21:11:48.808Z,12.20
2022-11-15T21:14:17.222Z,12.00
2022-11-15T21:16:46.717Z,12.00
2022-11-15T21:19:15.057Z,11.70
2022-11-15T21:21:43.235Z,11.90
2022-11-15T21:24:11.552Z,12.10
2022-11-15T21:26:39.695Z,12.20
2022-11-15T21:29:07.968Z,12.00
2022-11-15T21:31:36.081Z,12.00
2022-11-15T21:34:07.335Z,11.90
2022-11-15T21:36:35.471Z,12.00
2022-11-15T21:39:03.592Z,12.10
2022-11-15T21:41:32.475Z,12.10
2022-11-15T21:44:01.019Z,12.00
2022-11-15T21:46:29.377Z,11.80
2022-11-15T21:48:57.924Z,11.90
2022-11-15T21:51:27.477Z,11.90
2022-11-15T21:53:58.177Z,11.80
2022-11-15T21:56:26.789Z,11.90
2022-11-15T21:58:55.315Z,11.70
2022-11-15T22:01:41.665Z,11.50
2022-11-15T22:04:12.373Z,11.50
2022-11-15T22:06:41.895Z,11.50
2022-11-15T22:09:10.090Z,11.70
2022-11-15T22:11:38.232Z,11.70
2022-11-15T22:14:06.360Z,11.60
2022-11-15T22:16:35.565Z,11.90
2022-11-15T22:19:03.785Z,11.80
2022-11-15T22:21:31.943Z,11.80
2022-11-15T22:24:01.628Z,11.80
2022-11-15T22:26:29.757Z,12.00
2022-11-15T22:28:57.901Z,11.80
2022-11-15T22:31:26.068Z,11.80
2022-11-15T22:33:55.702Z,11.80
2022-11-15T22:36:27.269Z,11.60
2022-11-15T22:39:02.498Z,11.90
2022-11-15T22:41:30.815Z,11.90
2022-11-15T22:43:58.942Z,11.90
2022-11-15T22:46:27.990Z,11.80
2022-11-15T22:49:00.797Z,11.80
2022-11-15T22:51:31.363Z,12.00
2022-11-15T22:54:03.525Z,11.90
2022-11-15T22:56:31.689Z,11.90
2022-11-15T22:59:02.419Z,12.10
2022-11-15T23:01:30.578Z,11.80
2022-11-15T23:03:58.862Z,11.60
2022-11-15T23:06:27.042Z,11.90
2022-11-15T23:08:55.482Z,11.60
2022-11-15T23:11:42.555Z,11.80
2022-11-15T23:14:10.845Z,11.80
2022-11-15T23:16:39.823Z,11.80
2022-11-15T23:19:09.678Z,11.90
2022-11-15T23:21:55.910Z,12.00
2022-11-15T23:24:26.345Z,11.90
2022-11-15T23:26:57.020Z,11.90
2022-11-15T23:29:25.963Z,12.20
2022-11-15T23:32:11.562Z,12.20
2022-11-15T23:34:40.443Z,12.20
2022-11-15T23:37:09.895Z,12.00
2022-11-15T23:39:38.121Z,12.10
2022-11-15T23:42:09.561Z,12.00
2022-11-15T23:44:37.860Z,11.90
2022-11-15T23:47:06.055Z,12.00
2022-11-15T23:49:34.219Z,12.00
2022-11-15T23:52:02.562Z,12.10
2022-11-15T23:54:30.757Z,12.20
2022-11-15T23:56:59.063Z,12.30
2022-11-15T23:59:28.623Z,12.10
